Time;durP1;ratioP1;P1;durP2;ratioP2;P2;SDS_P1;SDS_P2;PMS_P1;PMS_P2;Temp;Humidity;BMP_temperature;BMP_pressure;BME280_temperature;BME280_humidity;BME280_pressure;Samples;Min_cycle;Max_cycle;Signal;HPM_P1;HPM_P2
2022/04/05 00:00:53;;;;;;;2.22;1.50;;;18.20;94.70;;;;;;4226716;28;20259;-73
2022/04/05 00:02:55;;;;;;;1.42;1.13;;;18.20;94.70;;;;;;4227612;28;20237;-73
2022/04/05 00:04:59;;;;;;;1.50;1.40;;;18.20;94.80;;;;;;4228711;28;20267;-74
2022/04/05 00:07:01;;;;;;;2.15;1.27;;;18.20;94.80;;;;;;4225672;28;20214;-73
2022/04/05 00:09:03;;;;;;;1.60;1.40;;;18.20;94.80;;;;;;4227552;28;20213;-73
2022/04/05 00:11:06;;;;;;;1.50;1.17;;;18.20;94.80;;;;;;4229126;27;20222;-73
2022/04/05 00:13:08;;;;;;;1.67;1.20;;;18.20;94.90;;;;;;4227673;28;20311;-74
2022/04/05 00:15:11;;;;;;;1.50;1.20;;;18.20;94.80;;;;;;4227010;28;20268;-73
2022/04/05 00:17:13;;;;;;;1.33;1.20;;;18.20;94.80;;;;;;4228595;28;20259;-73
2022/04/05 00:19:15;;;;;;;1.67;1.58;;;18.20;94.80;;;;;;4227648;28;20606;-73
2022/04/05 00:21:19;;;;;;;1.35;1.25;;;18.20;94.90;;;;;;4228289;28;20218;-73
2022/04/05 00:23:21;;;;;;;1.38;1.20;;;18.20;95.00;;;;;;4228808;28;20214;-73
2022/04/05 00:25:24;;;;;;;1.48;1.35;;;18.20;94.90;;;;;;4227255;28;20209;-73
2022/04/05 00:27:26;;;;;;;1.85;1.40;;;18.20;94.90;;;;;;4228376;28;20214;-74
2022/04/05 00:29:28;;;;;;;2.58;1.50;;;18.20;94.90;;;;;;4230299;27;20206;-73
2022/04/05 00:31:31;;;;;;;1.95;1.40;;;18.20;94.90;;;;;;4227360;28;20244;-73
2022/04/05 00:33:33;;;;;;;1.92;1.50;;;18.20;94.90;;;;;;4227384;28;20280;-73
2022/04/05 00:35:36;;;;;;;2.92;1.70;;;18.20;95.00;;;;;;4224952;28;20262;-73
2022/04/05 00:37:40;;;;;;;2.28;1.73;;;18.20;95.00;;;;;;4228322;28;20218;-73
2022/04/05 00:39:42;;;;;;;1.85;1.60;;;18.20;95.10;;;;;;4227706;28;20214;-73
2022/04/05 00:41:44;;;;;;;1.95;1.38;;;18.20;95.00;;;;;;4226934;28;20241;-73
2022/04/05 00:43:47;;;;;;;1.88;1.65;;;18.20;95.00;;;;;;4227870;28;20243;-73
2022/04/05 00:45:49;;;;;;;2.65;1.80;;;18.20;95.00;;;;;;4227655;28;20221;-74
2022/04/05 00:47:54;;;;;;;1.65;1.40;;;18.20;95.10;;;;;;4227683;28;20236;-73
2022/04/05 00:49:56;;;;;;;1.30;1.20;;;18.20;95.10;;;;;;4227941;28;20266;-73
2022/04/05 00:51:59;;;;;;;2.70;1.70;;;18.20;95.10;;;;;;4228355;28;20282;-73
2022/04/05 00:54:05;;;;;;;2.15;1.60;;;18.10;95.10;;;;;;4226394;28;20235;-73
2022/04/05 00:56:09;;;;;;;2.20;1.60;;;18.20;95.20;;;;;;4226846;28;20210;-74
2022/04/05 00:58:14;;;;;;;1.63;1.45;;;18.20;95.20;;;;;;4228230;28;20726;-73
2022/04/05 01:00:17;;;;;;;2.08;1.42;;;18.20;95.20;;;;;;4225506;28;20210;-73
2022/04/05 01:02:21;;;;;;;2.75;1.40;;;18.20;95.20;;;;;;4227638;28;20229;-73
2022/04/05 01:04:23;;;;;;;3.30;1.58;;;18.10;95.20;;;;;;4225744;28;20206;-73
2022/04/05 01:06:28;;;;;;;2.58;1.80;;;18.10;95.20;;;;;;4226700;28;20217;-73
2022/04/05 01:08:31;;;;;;;2.35;1.52;;;18.10;95.30;;;;;;4226337;28;20235;-73
2022/04/05 01:10:36;;;;;;;2.28;1.50;;;18.10;95.30;;;;;;4228283;28;20270;-73
2022/04/05 01:12:38;;;;;;;2.83;2.03;;;18.10;95.40;;;;;;4226913;28;20206;-73
2022/04/05 01:14:41;;;;;;;2.70;1.60;;;18.10;95.30;;;;;;4228137;28;20210;-73
2022/04/05 01:16:44;;;;;;;2.05;1.60;;;18.10;95.40;;;;;;4227044;28;20229;-74
2022/04/05 01:18:46;;;;;;;2.22;1.80;;;18.20;95.50;;;;;;4226928;28;20217;-73
2022/04/05 01:20:49;;;;;;;2.17;1.65;;;18.20;95.50;;;;;;4227111;28;20213;-73
2022/04/05 01:22:54;;;;;;;2.38;1.55;;;18.10;95.40;;;;;;4224126;28;20786;-73
2022/04/05 01:24:58;;;;;;;2.42;1.77;;;18.10;95.40;;;;;;4225786;28;20621;-73
2022/04/05 01:27:04;;;;;;;2.38;2.00;;;18.10;95.50;;;;;;4228623;28;20209;-73
2022/04/05 01:29:06;;;;;;;2.33;1.50;;;18.10;95.60;;;;;;4226176;28;20214;-74
2022/04/05 01:31:09;;;;;;;2.45;1.65;;;18.10;95.60;;;;;;4227480;28;20259;-73
2022/04/05 01:33:11;;;;;;;3.35;1.85;;;18.20;95.60;;;;;;4225826;28;20233;-73
2022/04/05 01:35:15;;;;;;;2.42;1.80;;;18.10;95.60;;;;;;4226619;28;20841;-73
2022/04/05 01:37:17;;;;;;;2.70;1.80;;;18.10;95.70;;;;;;4227377;28;20210;-73
2022/04/05 01:39:24;;;;;;;2.03;1.75;;;18.10;95.70;;;;;;4227157;28;20274;-74
2022/04/05 01:41:27;;;;;;;2.03;1.63;;;18.20;95.80;;;;;;4226354;28;20259;-73
2022/04/05 01:43:30;;;;;;;2.50;1.60;;;18.20;95.70;;;;;;4227655;28;20287;-73
2022/04/05 01:45:32;;;;;;;2.35;1.60;;;18.20;95.70;;;;;;4226937;28;20206;-73
2022/04/05 01:47:38;;;;;;;2.72;1.70;;;18.10;95.70;;;;;;4226196;28;20270;-73
2022/04/05 01:49:42;;;;;;;2.88;1.90;;;18.10;95.70;;;;;;4227600;28;20270;-73
2022/04/05 01:51:45;;;;;;;2.15;1.50;;;18.10;95.70;;;;;;4227869;28;20275;-73
2022/04/05 01:53:48;;;;;;;1.60;1.50;;;18.10;95.70;;;;;;4225863;28;20210;-73
2022/04/05 01:55:50;;;;;;;3.08;1.63;;;18.10;95.70;;;;;;4224286;28;20222;-73
2022/04/05 01:57:54;;;;;;;2.25;1.60;;;18.10;95.80;;;;;;4223748;28;20570;-73
2022/04/05 01:59:56;;;;;;;2.30;1.50;;;18.00;95.80;;;;;;4227755;27;20233;-73
2022/04/05 02:01:59;;;;;;;2.30;1.83;;;18.10;95.90;;;;;;4225499;28;20600;-73
2022/04/05 02:04:01;;;;;;;3.70;2.00;;;18.10;95.90;;;;;;4224647;28;20278;-73
2022/04/05 02:06:04;;;;;;;3.55;1.90;;;18.10;96.00;;;;;;4225048;28;20267;-73
2022/04/05 02:08:07;;;;;;;1.98;1.65;;;18.10;96.00;;;;;;4226905;28;20210;-73
2022/04/05 02:10:09;;;;;;;3.42;2.10;;;18.10;96.00;;;;;;4226176;28;20218;-73
2022/04/05 02:12:12;;;;;;;2.78;1.60;;;18.10;96.00;;;;;;4226562;28;20259;-73
2022/04/05 02:14:17;;;;;;;2.53;1.85;;;18.10;96.00;;;;;;4226376;28;20210;-73
2022/04/05 02:16:19;;;;;;;2.10;1.80;;;18.10;96.00;;;;;;4227362;28;20631;-73
2022/04/05 02:18:21;;;;;;;2.83;1.90;;;18.10;96.40;;;;;;4226104;28;20218;-73
2022/04/05 02:20:24;;;;;;;2.17;1.90;;;18.10;96.00;;;;;;4225593;28;20261;-73
2022/04/05 02:22:26;;;;;;;2.13;1.70;;;18.10;96.00;;;;;;4226816;28;20607;-73
2022/04/05 02:24:29;;;;;;;2.50;1.83;;;18.10;96.10;;;;;;4225214;28;20255;-73
2022/04/05 02:26:31;;;;;;;2.90;1.95;;;18.10;96.10;;;;;;4224768;28;20944;-73
2022/04/05 02:28:33;;;;;;;2.88;1.80;;;18.10;96.20;;;;;;4226397;28;20214;-73
2022/04/05 02:30:38;;;;;;;3.38;2.00;;;18.00;96.20;;;;;;4225279;28;20713;-73
2022/04/05 02:32:40;;;;;;;1.70;1.60;;;18.10;96.20;;;;;;4224265;28;20256;-73
2022/04/05 02:34:43;;;;;;;2.60;1.85;;;18.10;96.30;;;;;;4223406;28;20210;-73
2022/04/05 02:36:45;;;;;;;3.85;1.88;;;18.00;96.20;;;;;;4226766;28;20653;-74
2022/04/05 02:38:48;;;;;;;2.70;1.90;;;18.00;96.20;;;;;;4224769;28;20218;-73
2022/04/05 02:40:50;;;;;;;2.42;2.00;;;18.00;96.30;;;;;;4226767;28;20217;-73
2022/04/05 02:42:52;;;;;;;2.28;1.70;;;18.00;96.30;;;;;;4225662;28;20286;-73
2022/04/05 02:44:55;;;;;;;2.05;1.85;;;18.00;96.40;;;;;;4226330;28;20267;-73
2022/04/05 02:46:58;;;;;;;3.97;2.10;;;18.00;96.40;;;;;;4225115;28;20658;-74
2022/04/05 02:49:01;;;;;;;2.83;1.88;;;18.00;96.40;;;;;;4223640;28;20260;-74
2022/04/05 02:51:04;;;;;;;2.97;1.52;;;18.00;96.50;;;;;;4225899;28;20282;-73
2022/04/05 02:53:07;;;;;;;2.95;1.98;;;18.00;96.50;;;;;;4226199;28;20205;-73
2022/04/05 02:55:10;;;;;;;2.28;1.85;;;18.00;96.50;;;;;;4224494;28;20362;-74
2022/04/05 02:57:12;;;;;;;1.63;1.50;;;18.00;96.50;;;;;;4224195;28;20215;-73
2022/04/05 02:59:15;;;;;;;3.05;2.10;;;18.00;96.50;;;;;;4223018;28;20231;-73
2022/04/05 03:01:17;;;;;;;1.95;1.70;;;18.00;96.60;;;;;;4225189;28;20218;-73
2022/04/05 03:03:21;;;;;;;2.63;1.80;;;18.00;96.60;;;;;;4226667;28;20278;-73
2022/04/05 03:05:24;;;;;;;2.95;1.80;;;18.00;96.50;;;;;;4224599;28;20222;-73
2022/04/05 03:07:26;;;;;;;3.40;1.90;;;18.00;96.60;;;;;;4224166;28;20636;-73
2022/04/05 03:09:28;;;;;;;1.92;1.70;;;18.00;96.60;;;;;;4226774;28;20351;-73
2022/04/05 03:11:31;;;;;;;2.60;1.90;;;18.00;96.70;;;;;;4225069;28;20210;-73
2022/04/05 03:13:33;;;;;;;2.08;1.67;;;18.00;96.70;;;;;;4225371;28;20206;-73
2022/04/05 03:15:36;;;;;;;2.38;1.88;;;18.00;96.70;;;;;;4225893;28;20247;-74
2022/04/05 03:17:43;;;;;;;2.45;1.80;;;18.00;96.70;;;;;;4224351;28;20222;-73
2022/04/05 03:19:47;;;;;;;2.20;1.77;;;18.00;96.70;;;;;;4226419;28;20248;-73
2022/04/05 03:21:49;;;;;;;1.92;1.63;;;18.00;96.80;;;;;;4224107;28;20206;-73
2022/04/05 03:23:52;;;;;;;1.83;1.67;;;18.00;96.80;;;;;;4226164;28;20229;-74
2022/04/05 03:25:54;;;;;;;2.40;1.90;;;18.00;96.80;;;;;;4226398;28;20218;-73
2022/04/05 03:27:56;;;;;;;3.33;1.70;;;18.00;96.80;;;;;;4226168;28;20222;-73
2022/04/05 03:29:58;;;;;;;3.95;1.75;;;18.00;96.80;;;;;;4223930;28;20701;-73
2022/04/05 03:32:01;;;;;;;2.40;1.75;;;18.00;96.90;;;;;;4226312;28;20263;-73
2022/04/05 03:34:04;;;;;;;4.25;2.20;;;18.00;96.80;;;;;;4210780;28;20329;-73
2022/04/05 03:36:07;;;;;;;3.15;1.98;;;18.00;97.00;;;;;;4209680;28;20226;-73
2022/04/05 03:38:10;;;;;;;3.47;1.83;;;18.00;96.90;;;;;;4208877;28;20214;-74
2022/04/05 03:40:13;;;;;;;2.65;1.67;;;18.00;97.00;;;;;;4208360;28;20565;-74
2022/04/05 03:42:16;;;;;;;3.00;1.88;;;18.00;96.90;;;;;;4212436;28;20240;-74
2022/04/05 03:44:18;;;;;;;2.30;1.75;;;18.00;97.00;;;;;;4206743;28;20264;-73
2022/04/05 03:46:21;;;;;;;2.83;1.77;;;18.00;97.00;;;;;;4210566;28;20271;-73
2022/04/05 03:48:23;;;;;;;3.47;1.75;;;18.00;96.90;;;;;;4212005;28;20218;-74
2022/04/05 03:50:25;;;;;;;3.03;1.98;;;18.00;97.00;;;;;;4212387;28;20206;-73
2022/04/05 03:52:29;;;;;;;2.40;1.70;;;18.00;97.10;;;;;;4209334;28;20435;-73
2022/04/05 03:54:31;;;;;;;3.28;2.08;;;18.00;97.10;;;;;;4212439;28;20210;-74
2022/04/05 03:56:34;;;;;;;2.70;1.70;;;18.00;97.10;;;;;;4210730;28;20268;-74
2022/04/05 03:58:36;;;;;;;3.88;1.70;;;18.00;97.00;;;;;;4212436;28;20613;-73
2022/04/05 04:00:38;;;;;;;2.90;1.80;;;18.00;97.00;;;;;;4211573;28;20218;-73
2022/04/05 04:02:40;;;;;;;3.13;1.83;;;18.00;97.10;;;;;;4212639;28;20608;-74
2022/04/05 04:04:43;;;;;;;1.77;1.48;;;18.00;97.10;;;;;;4211326;28;20675;-73
2022/04/05 04:06:45;;;;;;;3.55;1.90;;;17.90;97.10;;;;;;4212127;28;20654;-73
2022/04/05 04:08:49;;;;;;;2.20;1.60;;;17.90;97.10;;;;;;4212101;28;21444;-73
2022/04/05 04:10:51;;;;;;;3.78;1.60;;;18.00;97.10;;;;;;4209597;28;20222;-73
2022/04/05 04:12:54;;;;;;;2.75;1.80;;;18.00;97.10;;;;;;4209998;28;20219;-73
2022/04/05 04:14:56;;;;;;;2.38;1.67;;;18.00;97.10;;;;;;4211515;28;20218;-73
2022/04/05 04:16:58;;;;;;;2.67;1.73;;;17.90;97.30;;;;;;4210274;28;20698;-73
2022/04/05 04:19:01;;;;;;;2.08;1.83;;;17.90;97.30;;;;;;4211914;28;20253;-73
2022/04/05 04:21:03;;;;;;;4.43;1.92;;;18.00;97.30;;;;;;4211202;28;20264;-73
2022/04/05 04:23:05;;;;;;;2.72;1.70;;;17.90;97.30;;;;;;4212118;28;20218;-73
2022/04/05 04:25:10;;;;;;;3.35;2.03;;;18.00;97.40;;;;;;4210950;28;20239;-74
2022/04/05 04:27:12;;;;;;;3.38;2.00;;;17.90;97.50;;;;;;4211866;28;20207;-73
2022/04/05 04:29:15;;;;;;;3.97;1.90;;;17.90;97.50;;;;;;4209266;28;20211;-73
2022/04/05 04:31:17;;;;;;;2.60;1.50;;;17.90;97.50;;;;;;4210525;28;20252;-73
2022/04/05 04:33:20;;;;;;;3.22;1.70;;;17.90;97.60;;;;;;4211465;28;20629;-73
2022/04/05 04:35:23;;;;;;;2.67;1.70;;;17.90;97.50;;;;;;4208699;28;20198;-73
2022/04/05 04:37:26;;;;;;;2.47;1.77;;;17.90;97.60;;;;;;4209640;28;20266;-73
2022/04/05 04:39:29;;;;;;;4.10;2.17;;;17.90;97.60;;;;;;4209570;28;20222;-73
2022/04/05 04:41:32;;;;;;;3.55;1.63;;;17.90;97.60;;;;;;4209338;28;20218;-73
2022/04/05 04:43:35;;;;;;;2.60;1.60;;;17.90;97.70;;;;;;4209253;28;20218;-74
2022/04/05 04:45:37;;;;;;;2.15;1.83;;;17.90;97.70;;;;;;4211160;28;20235;-73
2022/04/05 04:47:40;;;;;;;4.07;1.90;;;17.90;97.80;;;;;;4204836;28;20223;-73
2022/04/05 04:49:42;;;;;;;2.50;2.00;;;17.90;97.70;;;;;;4210181;28;20214;-73
2022/04/05 04:51:45;;;;;;;3.08;1.60;;;17.90;97.70;;;;;;4211040;28;20678;-73
2022/04/05 04:53:47;;;;;;;2.45;1.90;;;17.90;97.80;;;;;;4209235;28;20303;-73
2022/04/05 04:55:49;;;;;;;3.08;1.80;;;17.70;98.30;;;;;;4208386;28;20268;-73
2022/04/05 04:57:53;;;;;;;2.30;1.70;;;17.50;98.60;;;;;;4207964;28;20553;-73
2022/04/05 04:59:55;;;;;;;3.13;1.88;;;17.70;98.60;;;;;;4208661;28;20218;-74
2022/04/05 05:01:57;;;;;;;2.28;1.75;;;17.80;98.40;;;;;;4208825;28;20725;-72
2022/04/05 05:04:00;;;;;;;2.70;1.85;;;17.80;98.20;;;;;;4209779;28;20618;-72
2022/04/05 05:06:03;;;;;;;3.50;1.48;;;17.90;98.10;;;;;;4210231;28;20214;-71
2022/04/05 05:08:06;;;;;;;2.33;1.65;;;18.00;98.00;;;;;;4207984;28;20583;-72
2022/04/05 05:10:08;;;;;;;2.53;1.60;;;18.00;97.80;;;;;;4209398;28;20260;-72
2022/04/05 05:12:11;;;;;;;3.05;1.70;;;18.00;97.70;;;;;;4209252;28;20218;-71
2022/04/05 05:14:15;;;;;;;3.88;1.50;;;18.10;97.60;;;;;;4210070;28;20210;-72
2022/04/05 05:16:17;;;;;;;3.10;1.38;;;18.10;97.40;;;;;;4209267;28;20236;-72
2022/04/05 05:18:20;;;;;;;1.92;1.52;;;18.10;97.40;;;;;;4209981;28;20215;-72
2022/04/05 05:20:22;;;;;;;2.15;1.60;;;18.20;97.30;;;;;;4210462;28;20315;-72
2022/04/05 05:22:25;;;;;;;2.13;1.42;;;18.20;97.60;;;;;;4208080;28;20215;-72
2022/04/05 05:24:27;;;;;;;2.10;1.60;;;18.20;97.20;;;;;;4209627;28;20239;-73
2022/04/05 05:26:29;;;;;;;3.33;1.40;;;18.20;97.20;;;;;;4206678;28;20229;-73
2022/04/05 05:28:32;;;;;;;1.48;1.27;;;18.30;97.30;;;;;;4208170;28;20218;-73
2022/04/05 05:30:36;;;;;;;2.28;1.52;;;18.20;97.20;;;;;;4208875;28;20210;-73
2022/04/05 05:32:46;;;;;;;2.78;1.60;;;18.30;97.10;;;;;;4205638;28;20591;-73
2022/04/05 05:34:48;;;;;;;1.80;1.35;;;18.30;97.20;;;;;;4209542;28;20326;-73
2022/04/05 05:36:50;;;;;;;1.60;1.42;;;18.40;97.10;;;;;;4210863;28;20252;-73
2022/04/05 05:38:53;;;;;;;2.90;1.42;;;18.40;97.10;;;;;;4210082;28;20268;-73
2022/04/05 05:40:55;;;;;;;1.75;1.55;;;18.40;97.10;;;;;;4210891;28;20284;-73
2022/04/05 05:42:59;;;;;;;2.35;1.55;;;18.40;97.00;;;;;;4211066;28;20612;-73
2022/04/05 05:45:01;;;;;;;3.10;1.60;;;18.50;97.00;;;;;;4210832;28;20238;-73
2022/04/05 05:47:06;;;;;;;2.38;1.40;;;18.50;97.00;;;;;;4209419;28;20214;-73
2022/04/05 05:49:08;;;;;;;2.00;1.35;;;18.50;97.00;;;;;;4210126;28;20730;-73
2022/04/05 05:51:11;;;;;;;3.58;1.52;;;18.50;97.00;;;;;;4210109;28;20222;-73
2022/04/05 05:53:13;;;;;;;1.80;1.50;;;18.50;96.90;;;;;;4202410;28;20211;-73
2022/04/05 05:55:17;;;;;;;2.00;1.35;;;18.50;97.00;;;;;;4204053;28;20621;-74
2022/04/05 05:57:19;;;;;;;2.38;1.67;;;18.50;97.00;;;;;;4209967;28;20626;-73
2022/04/05 05:59:22;;;;;;;2.45;1.60;;;18.60;97.00;;;;;;4209848;28;20276;-73
2022/04/05 06:01:25;;;;;;;2.63;1.50;;;18.60;96.90;;;;;;4208983;28;20210;-73
2022/04/05 06:03:29;;;;;;;1.80;1.33;;;18.60;96.80;;;;;;4204098;28;20624;-73
2022/04/05 06:05:32;;;;;;;2.13;1.58;;;18.60;96.80;;;;;;4209508;28;20662;-74
2022/04/05 06:07:34;;;;;;;2.15;1.58;;;18.60;96.80;;;;;;4208506;28;20214;-73
2022/04/05 06:09:36;;;;;;;3.15;1.45;;;18.60;96.80;;;;;;4209691;28;20257;-73
2022/04/05 06:11:39;;;;;;;1.77;1.38;;;18.60;96.80;;;;;;4199288;28;20234;-73
2022/04/05 06:13:41;;;;;;;2.78;1.48;;;18.60;97.10;;;;;;4202396;28;20222;-73
2022/04/05 06:15:43;;;;;;;3.22;1.65;;;18.70;96.70;;;;;;4198984;28;20257;-73
2022/04/05 06:17:47;;;;;;;1.73;1.40;;;18.70;96.90;;;;;;4194246;28;20219;-73
2022/04/05 06:19:51;;;;;;;3.40;1.63;;;18.70;96.80;;;;;;4204167;28;20616;-74
2022/04/05 06:21:53;;;;;;;1.40;1.10;;;18.70;96.80;;;;;;4202446;28;20264;-73
2022/04/05 06:23:55;;;;;;;2.50;1.67;;;18.80;96.70;;;;;;4204751;28;20223;-73
2022/04/05 06:25:58;;;;;;;1.92;1.20;;;18.80;96.80;;;;;;4200862;28;20287;-73
2022/04/05 06:28:02;;;;;;;2.13;1.40;;;18.80;96.70;;;;;;4198277;28;20244;-73
2022/04/05 06:30:05;;;;;;;1.63;1.52;;;18.80;96.70;;;;;;4197383;28;20215;-73
2022/04/05 06:32:08;;;;;;;1.30;1.20;;;18.80;96.70;;;;;;4208077;28;20256;-73
2022/04/05 06:34:10;;;;;;;2.15;1.42;;;18.80;96.60;;;;;;4217219;28;20271;-74
2022/04/05 06:36:14;;;;;;;2.40;1.30;;;18.90;96.60;;;;;;4207632;28;20207;-73
2022/04/05 06:38:17;;;;;;;2.22;1.30;;;18.90;96.70;;;;;;4219445;28;20283;-73
2022/04/05 06:40:19;;;;;;;2.63;1.45;;;18.90;97.00;;;;;;4218125;28;20264;-73
2022/04/05 06:42:22;;;;;;;2.17;1.63;;;18.90;96.50;;;;;;4212960;28;20218;-73
2022/04/05 06:44:24;;;;;;;2.92;1.38;;;18.90;96.60;;;;;;4213725;28;20218;-73
2022/04/05 06:46:26;;;;;;;1.10;1.00;;;18.90;96.40;;;;;;4211728;28;20227;-73
2022/04/05 06:48:28;;;;;;;1.98;1.40;;;19.00;96.90;;;;;;4215008;28;20647;-73
2022/04/05 06:50:31;;;;;;;2.58;1.60;;;19.00;96.40;;;;;;4213632;28;20650;-73
2022/04/05 06:52:36;;;;;;;1.80;1.33;;;19.00;96.40;;;;;;4212707;28;20268;-73
2022/04/05 06:54:38;;;;;;;1.73;1.20;;;19.00;96.40;;;;;;4219564;28;20634;-73
2022/04/05 06:56:41;;;;;;;2.00;1.25;;;19.00;96.40;;;;;;4218141;28;20214;-73
2022/04/05 06:58:44;;;;;;;2.60;2.03;;;19.00;96.40;;;;;;4219191;28;20210;-74
2022/04/05 07:00:46;;;;;;;2.88;1.40;;;19.00;97.40;;;;;;4212055;28;20214;-73
2022/04/05 07:02:49;;;;;;;2.05;1.63;;;19.10;97.50;;;;;;4207646;28;20210;-73
2022/04/05 07:04:51;;;;;;;3.05;1.40;;;19.10;97.40;;;;;;4200628;28;20223;-74
2022/04/05 07:06:53;;;;;;;4.47;1.63;;;19.10;97.40;;;;;;4207104;28;20238;-73
2022/04/05 07:08:57;;;;;;;3.97;1.70;;;19.00;97.80;;;;;;4212190;28;20795;-73
2022/04/05 07:10:59;;;;;;;12.27;2.95;;;19.00;97.90;;;;;;4215054;28;20276;-73
2022/04/05 07:13:02;;;;;;;15.23;3.45;;;19.00;98.80;;;;;;4217895;28;20218;-73
2022/04/05 07:15:05;;;;;;;21.73;4.93;;;18.90;99.50;;;;;;4206263;28;20212;-73
2022/04/05 07:17:08;;;;;;;15.90;4.47;;;18.90;99.90;;;;;;4207539;28;20249;-73
2022/04/05 07:19:10;;;;;;;11.82;2.60;;;19.10;99.90;;;;;;4204535;28;20219;-74
2022/04/05 07:21:15;;;;;;;12.45;2.80;;;19.20;99.30;;;;;;4209632;28;20222;-74
2022/04/05 07:23:17;;;;;;;7.25;2.42;;;19.40;99.10;;;;;;4203479;28;20227;-73
2022/04/05 07:25:21;;;;;;;10.73;3.00;;;19.60;99.10;;;;;;4215425;28;20631;-74
2022/04/05 07:27:23;;;;;;;5.45;2.15;;;19.70;98.70;;;;;;4200962;28;20269;-74
2022/04/05 07:29:26;;;;;;;8.05;2.20;;;19.80;98.50;;;;;;4208624;28;20709;-74
2022/04/05 07:31:28;;;;;;;6.13;2.15;;;19.90;98.30;;;;;;4210497;28;20642;-74
2022/04/05 07:33:30;;;;;;;7.40;2.28;;;19.90;98.00;;;;;;4215618;28;20225;-75
2022/04/05 07:35:33;;;;;;;6.68;2.03;;;20.00;97.70;;;;;;4223926;28;20270;-75
2022/04/05 07:37:36;;;;;;;5.45;2.40;;;20.00;97.70;;;;;;4225578;28;20214;-75
2022/04/05 07:39:40;;;;;;;6.68;1.98;;;20.10;97.80;;;;;;4223834;28;20210;-75
2022/04/05 07:41:45;;;;;;;7.50;2.30;;;20.10;97.60;;;;;;4228268;28;20230;-75
2022/04/05 07:43:47;;;;;;;6.40;2.28;;;20.20;97.50;;;;;;4226128;28;20214;-75
2022/04/05 07:45:50;;;;;;;5.70;2.38;;;20.30;97.60;;;;;;4226404;28;20294;-75
2022/04/05 07:47:52;;;;;;;4.85;2.20;;;20.30;97.50;;;;;;4223983;28;20270;-75
2022/04/05 07:49:54;;;;;;;4.93;2.22;;;20.30;97.50;;;;;;4220396;28;20247;-76
2022/04/05 07:51:57;;;;;;;5.30;2.13;;;20.30;97.50;;;;;;4228014;27;20272;-75
2022/04/05 07:54:01;;;;;;;4.28;2.28;;;20.30;97.70;;;;;;4226375;28;20237;-75
2022/04/05 07:56:04;;;;;;;5.75;2.20;;;20.30;97.80;;;;;;4222941;28;20214;-75
2022/04/05 07:58:08;;;;;;;3.95;2.30;;;20.40;98.00;;;;;;4222228;28;20217;-75
2022/04/05 08:00:11;;;;;;;6.05;2.25;;;20.50;97.80;;;;;;4222884;28;20214;-76
2022/04/05 08:02:13;;;;;;;6.65;2.38;;;20.50;98.00;;;;;;4223178;28;20210;-75
2022/04/05 08:04:16;;;;;;;5.38;2.25;;;20.50;97.50;;;;;;4224522;28;20209;-75
2022/04/05 08:06:18;;;;;;;3.90;1.75;;;20.50;97.50;;;;;;4227545;28;20299;-75
2022/04/05 08:08:21;;;;;;;5.28;2.15;;;20.50;97.80;;;;;;4227463;28;20666;-76
2022/04/05 08:10:23;;;;;;;4.50;1.95;;;20.50;97.80;;;;;;4220951;28;20979;-77
2022/04/05 08:12:26;;;;;;;4.45;1.80;;;20.50;97.80;;;;;;4226642;27;20205;-76
2022/04/05 08:14:31;;;;;;;5.55;2.35;;;20.50;97.90;;;;;;4242661;27;20718;-75
2022/04/05 08:16:33;;;;;;;9.00;2.47;;;20.60;97.90;;;;;;4246128;27;20697;-77
2022/04/05 08:18:36;;;;;;;6.75;1.98;;;20.70;97.80;;;;;;4244163;27;20213;-76
2022/04/05 08:20:41;;;;;;;5.40;2.40;;;20.60;97.60;;;;;;4241268;27;20209;-75
2022/04/05 08:22:44;;;;;;;3.08;2.20;;;20.60;97.80;;;;;;4241710;27;20618;-76
2022/04/05 08:24:46;;;;;;;5.35;2.22;;;20.60;97.90;;;;;;4236222;27;20278;-75
2022/04/05 08:26:49;;;;;;;6.00;2.17;;;20.60;97.90;;;;;;4242591;27;20289;-76
2022/04/05 08:29:05;;;;;;;7.82;2.30;;;20.60;98.10;;;;;;4239619;27;20217;-77
2022/04/05 08:31:09;;;;;;;5.38;2.15;;;20.60;97.90;;;;;;4240587;27;20205;-76
2022/04/05 08:33:11;;;;;;;4.88;2.40;;;20.60;97.90;;;;;;4240070;27;20225;-75
2022/04/05 08:35:15;;;;;;;4.78;2.33;;;20.70;97.70;;;;;;4241112;27;20644;-75
2022/04/05 08:37:18;;;;;;;5.95;2.33;;;20.70;97.80;;;;;;4244097;27;20209;-75
2022/04/05 08:39:20;;;;;;;4.35;2.10;;;20.70;97.90;;;;;;4243345;27;20265;-75
2022/04/05 08:41:25;;;;;;;4.32;2.45;;;20.70;97.80;;;;;;4242422;27;20274;-75
2022/04/05 08:43:27;;;;;;;5.68;2.13;;;20.70;98.10;;;;;;4243710;27;20994;-75
2022/04/05 08:45:30;;;;;;;4.85;2.10;;;20.70;97.80;;;;;;4238272;27;20214;-75
2022/04/05 08:47:35;;;;;;;5.53;2.08;;;20.80;97.60;;;;;;4239225;27;20236;-75
2022/04/05 08:49:38;;;;;;;2.58;1.73;;;20.80;97.60;;;;;;4241471;27;20268;-75
2022/04/05 08:51:41;;;;;;;6.78;2.28;;;20.80;97.50;;;;;;4243947;27;20250;-75
2022/04/05 08:53:43;;;;;;;3.15;1.92;;;20.80;97.70;;;;;;4242657;27;20217;-75
2022/04/05 08:55:46;;;;;;;4.85;2.30;;;20.80;97.80;;;;;;4240247;27;20651;-74
2022/04/05 08:57:48;;;;;;;4.38;2.30;;;20.80;98.00;;;;;;4240106;27;20262;-75
2022/04/05 08:59:50;;;;;;;5.50;2.30;;;20.80;98.10;;;;;;4243114;27;20266;-74
2022/04/05 09:01:53;;;;;;;4.95;2.28;;;20.80;98.00;;;;;;4240608;27;20282;-73
2022/04/05 09:03:57;;;;;;;7.07;2.20;;;20.80;98.00;;;;;;4240589;27;20254;-73
2022/04/05 09:06:19;;;;;;;8.40;2.60;;;20.90;98.20;;;;;;4240189;27;20217;-74
2022/04/05 09:08:23;;;;;;;4.18;2.22;;;20.90;98.20;;;;;;4242367;27;20282;-74
2022/04/05 09:10:25;;;;;;;4.22;1.88;;;20.90;98.20;;;;;;4242713;27;20216;-76
2022/04/05 09:12:28;;;;;;;5.28;1.95;;;20.90;98.40;;;;;;4243937;27;20274;-74
2022/04/05 09:14:31;;;;;;;5.13;2.30;;;20.90;98.40;;;;;;4243481;27;20217;-74
2022/04/05 09:16:35;;;;;;;3.92;1.80;;;20.90;98.30;;;;;;4241878;27;20282;-75
2022/04/05 09:18:40;;;;;;;5.60;2.20;;;20.90;98.20;;;;;;4239426;27;20732;-75
2022/04/05 09:20:49;;;;;;;5.22;2.03;;;20.90;98.30;;;;;;4236868;27;20230;-75
2022/04/05 09:22:52;;;;;;;3.58;1.58;;;21.00;98.30;;;;;;4241209;27;20257;-76
2022/04/05 09:24:55;;;;;;;6.80;2.40;;;21.00;98.20;;;;;;4241341;27;20247;-76
2022/04/05 09:26:57;;;;;;;5.15;2.38;;;21.00;98.40;;;;;;4241301;27;20237;-75
2022/04/05 09:29:07;;;;;;;4.13;2.00;;;21.00;98.40;;;;;;4237704;27;20209;-75
2022/04/05 09:31:12;;;;;;;5.03;2.30;;;20.90;98.60;;;;;;4242224;27;20262;-75
2022/04/05 09:33:14;;;;;;;5.90;2.17;;;21.00;98.50;;;;;;4226696;27;20234;-76
2022/04/05 09:35:18;;;;;;;5.20;2.35;;;21.00;98.60;;;;;;4207354;28;21069;-74
2022/04/05 09:37:28;;;;;;;5.80;2.25;;;21.00;98.60;;;;;;4204555;28;20215;-74
2022/04/05 09:39:30;;;;;;;4.68;2.35;;;21.10;98.70;;;;;;4207064;28;20283;-75
2022/04/05 09:41:35;;;;;;;7.00;2.20;;;21.00;98.60;;;;;;4208223;28;20670;-76
2022/04/05 09:43:37;;;;;;;5.43;2.10;;;21.00;98.90;;;;;;4207951;28;20211;-76
2022/04/05 09:45:48;;;;;;;3.25;2.13;;;21.00;98.60;;;;;;4211274;28;20210;-76
2022/04/05 09:48:04;;;;;;;3.63;2.45;;;21.00;98.90;;;;;;4206373;28;20229;-74
2022/04/05 09:50:07;;;;;;;2.78;2.00;;;20.90;99.10;;;;;;4207754;28;20916;-74
2022/04/05 09:52:29;;;;;;;5.93;2.15;;;21.00;98.80;;;;;;4204098;28;20214;-74
2022/04/05 09:54:31;;;;;;;4.85;2.17;;;21.00;98.50;;;;;;4208783;28;20214;-74
2022/04/05 09:56:38;;;;;;;3.67;1.90;;;21.10;98.60;;;;;;4208866;28;20218;-74
2022/04/05 09:58:45;;;;;;;5.80;1.90;;;21.10;98.70;;;;;;4205929;28;20606;-75
2022/04/05 10:01:05;;;;;;;5.03;1.92;;;21.10;99.00;;;;;;4200160;28;20213;-75
2022/04/05 10:03:09;;;;;;;6.93;1.80;;;21.00;99.20;;;;;;4202016;28;20219;-75
2022/04/05 10:05:12;;;;;;;3.65;1.98;;;21.00;98.90;;;;;;4208390;28;20268;-74
2022/04/05 10:07:14;;;;;;;2.88;1.70;;;21.10;98.90;;;;;;4205920;28;20287;-75
2022/04/05 10:09:21;;;;;;;5.68;1.98;;;21.20;98.70;;;;;;4212959;28;20210;-75
2022/04/05 10:11:26;;;;;;;3.08;2.00;;;21.10;98.60;;;;;;4201600;28;20556;-75
2022/04/05 10:13:28;;;;;;;3.97;2.63;;;21.10;99.00;;;;;;4207024;28;20264;-74
2022/04/05 10:15:31;;;;;;;4.78;2.00;;;21.10;98.70;;;;;;4198121;28;20222;-75
2022/04/05 10:17:34;;;;;;;4.35;1.90;;;21.10;98.60;;;;;;4202972;28;20264;-75
2022/04/05 10:19:37;;;;;;;5.07;1.88;;;21.10;98.60;;;;;;4206512;28;20210;-74
2022/04/05 10:21:41;;;;;;;4.03;2.15;;;21.10;98.80;;;;;;4202970;28;20263;-73
2022/04/05 10:23:47;;;;;;;3.00;1.95;;;21.10;98.60;;;;;;4200079;28;20273;-75
2022/04/05 10:25:53;;;;;;;3.03;1.95;;;21.20;98.80;;;;;;4202864;28;20279;-75
2022/04/05 10:27:55;;;;;;;5.28;2.20;;;21.20;98.70;;;;;;4201666;28;20246;-75
2022/04/05 10:30:26;;;;;;;3.60;1.85;;;21.20;98.70;;;;;;4210700;28;20218;-75
2022/04/05 10:32:34;;;;;;;4.57;2.00;;;21.20;98.90;;;;;;4206235;27;20258;-74
2022/04/05 10:34:43;;;;;;;3.80;2.13;;;21.10;98.80;;;;;;4236541;27;20254;-75
2022/04/05 10:37:12;;;;;;;2.33;1.65;;;21.10;99.00;;;;;;4236707;27;20582;-75
2022/04/05 10:39:16;;;;;;;3.85;2.03;;;21.10;98.80;;;;;;4238763;27;20269;-77
2022/04/05 10:41:21;;;;;;;5.38;1.83;;;21.20;98.70;;;;;;4232997;27;20209;-75